createdAt,value
2022-11-16T00:00:05.413Z,97098.34
2022-11-16T00:02:54.015Z,97094.98
2022-11-16T00:05:27.002Z,97098.50
2022-11-16T00:07:57.848Z,97096.44
2022-11-16T00:10:25.820Z,97095.36
2022-11-16T00:12:53.770Z,97090.82
2022-11-16T00:15:21.788Z,97089.48
2022-11-16T00:17:49.766Z,97088.64
2022-11-16T00:20:17.734Z,97081.58
2022-11-16T00:22:45.750Z,97079.77
2022-11-16T00:25:13.692Z,97076.71
2022-11-16T00:27:41.702Z,97076.05
2022-11-16T00:30:10.899Z,97077.71
2022-11-16T00:32:38.843Z,97079.41
2022-11-16T00:35:07.555Z,97082.13
2022-11-16T00:37:35.539Z,97080.02
2022-11-16T00:40:04.284Z,97078.06
2022-11-16T00:42:32.281Z,97079.59
2022-11-16T00:45:00.412Z,97075.92
2022-11-16T00:47:28.477Z,97076.65
2022-11-16T00:49:56.526Z,97074.42
2022-11-16T00:52:24.501Z,97079.20
2022-11-16T00:54:52.600Z,97073.45
2022-11-16T00:57:20.912Z,97074.42
2022-11-16T00:59:49.003Z,97069.26
2022-11-16T01:02:17.032Z,97067.20
2022-11-16T01:04:45.043Z,97066.05
2022-11-16T01:07:13.142Z,97064.55
2022-11-16T01:09:41.979Z,97059.80
2022-11-16T01:12:10.687Z,97060.32
2022-11-16T01:14:43.290Z,97050.89
2022-11-16T01:17:14.139Z,97050.92
2022-11-16T01:19:42.215Z,97044.18
2022-11-16T01:22:10.572Z,97040.73
2022-11-16T01:24:38.625Z,97040.31
2022-11-16T01:27:06.569Z,97038.42
2022-11-16T01:29:38.540Z,97039.70
2022-11-16T01:32:06.594Z,97033.64
2022-11-16T01:34:35.542Z,97031.79
2022-11-16T01:37:09.358Z,97023.00
2022-11-16T01:39:40.794Z,97020.55
2022-11-16T01:42:24.288Z,97014.20
2022-11-16T01:45:06.969Z,97010.20
2022-11-16T01:47:34.977Z,97008.16
2022-11-16T01:50:10.804Z,97005.15
2022-11-16T01:52:47.856Z,97004.25
2022-11-16T01:55:17.017Z,96998.83
2022-11-16T01:58:06.854Z,96997.11
2022-11-16T02:00:36.770Z,96991.31
2022-11-16T02:03:26.162Z,96983.95
2022-11-16T02:06:04.894Z,96981.09
2022-11-16T02:09:11.145Z,96982.70
2022-11-16T02:11:51.054Z,96986.91
2022-11-16T02:14:37.867Z,96987.05
2022-11-16T02:17:35.964Z,96982.64
2022-11-16T02:20:17.569Z,96978.06
2022-11-16T02:23:16.972Z,96975.09
2022-11-16T02:26:22.354Z,96978.36
2022-11-16T02:29:05.689Z,96975.91
2022-11-16T02:31:38.009Z,96970.59
2022-11-16T02:34:10.138Z,96969.51
2022-11-16T02:36:42.353Z,96964.90
2022-11-16T02:39:18.762Z,96966.05
2022-11-16T02:41:48.949Z,96958.55
2022-11-16T02:44:30.349Z,96959.59
2022-11-16T02:47:05.139Z,96953.92
2022-11-16T02:49:43.621Z,96952.85
2022-11-16T02:52:13.685Z,96954.25
2022-11-16T02:54:41.635Z,96953.39
2022-11-16T02:57:09.461Z,96954.13
2022-11-16T02:59:46.038Z,96951.72
2022-11-16T03:02:38.939Z,96951.83
2022-11-16T03:05:46.022Z,96957.54
2022-11-16T03:08:25.411Z,96954.33
2022-11-16T03:11:16.816Z,96954.80
2022-11-16T03:13:46.744Z,96955.13
2022-11-16T03:16:26.896Z,96955.55
2022-11-16T03:18:58.365Z,96946.80
2022-11-16T03:21:43.996Z,96946.70
2022-11-16T03:24:12.113Z,96944.61
2022-11-16T03:26:59.958Z,96947.19
2022-11-16T03:29:32.197Z,96948.61
2022-11-16T03:32:31.807Z,96949.69
2022-11-16T03:35:08.210Z,96948.71
2022-11-16T03:37:37.091Z,96944.13
2022-11-16T03:40:06.382Z,96941.73
2022-11-16T03:42:37.290Z,96936.98
2022-11-16T03:45:06.876Z,96935.09
2022-11-16T03:47:34.815Z,96928.70
2022-11-16T03:50:04.968Z,96925.17
2022-11-16T03:52:33.514Z,96924.34
2022-11-16T03:55:01.778Z,96923.30
2022-11-16T03:57:29.825Z,96921.31
2022-11-16T03:59:59.705Z,96924.61
2022-11-16T04:02:27.672Z,96920.91
2022-11-16T04:05:15.270Z,96917.08
2022-11-16T04:08:03.459Z,96910.77
2022-11-16T04:10:50.182Z,96907.90
2022-11-16T04:13:46.345Z,96906.14
2022-11-16T04:16:32.746Z,96905.08
2022-11-16T04:19:19.337Z,96907.85
2022-11-16T04:22:12.336Z,96905.23
2022-11-16T04:24:44.025Z,96904.30
2022-11-16T04:27:33.198Z,96898.59
2022-11-16T04:30:03.537Z,96900.48
2022-11-16T04:32:52.246Z,96899.98
2022-11-16T04:35:38.715Z,96899.78
2022-11-16T04:38:09.043Z,96894.02
2022-11-16T04:40:37.192Z,96890.45
2022-11-16T04:43:05.866Z,96887.14
2022-11-16T04:45:54.558Z,96887.48
2022-11-16T04:48:25.363Z,96881.92
2022-11-16T04:50:54.612Z,96881.95
2022-11-16T04:53:25.016Z,96879.02
2022-11-16T04:56:00.882Z,96873.45
2022-11-16T04:58:29.347Z,96872.94
2022-11-16T05:00:57.354Z,96871.55
2022-11-16T05:03:25.640Z,96869.52
2022-11-16T05:05:53.697Z,96863.91
2022-11-16T05:08:21.828Z,96862.01
2022-11-16T05:10:51.953Z,96863.89
2022-11-16T05:13:20.305Z,96869.05
2022-11-16T05:15:50.195Z,96863.98
2022-11-16T05:18:18.852Z,96860.10
2022-11-16T05:21:02.521Z,96861.42
2022-11-16T05:23:53.353Z,96854.75
2022-11-16T05:26:23.128Z,96852.55
2022-11-16T05:28:52.132Z,96850.27
2022-11-16T05:31:20.117Z,96851.70
2022-11-16T05:33:50.235Z,96850.98
2022-11-16T05:36:19.100Z,96849.64
2022-11-16T05:38:47.252Z,96851.56
2022-11-16T05:41:15.575Z,96853.08
2022-11-16T05:43:44.081Z,96848.98
2022-11-16T05:46:17.215Z,96845.51
2022-11-16T05:48:45.892Z,96843.11
2022-11-16T05:51:14.446Z,96842.86
2022-11-16T05:53:44.225Z,96840.05
2022-11-16T05:56:15.122Z,96839.44
2022-11-16T05:58:44.439Z,96838.40
2022-11-16T06:01:12.874Z,96834.20
2022-11-16T06:03:41.218Z,96833.11
2022-11-16T06:06:09.735Z,96830.50
2022-11-16T06:08:38.086Z,96828.67
2022-11-16T06:11:10.192Z,96832.83
2022-11-16T06:13:38.706Z,96833.36
2022-11-16T06:16:07.693Z,96831.04
2022-11-16T06:18:40.824Z,96828.13
2022-11-16T06:21:09.357Z,96826.84
2022-11-16T06:23:37.616Z,96824.08
2022-11-16T06:26:07.213Z,96826.34
2022-11-16T06:28:36.471Z,96818.30
2022-11-16T06:31:05.096Z,96817.73
2022-11-16T06:33:36.407Z,96815.73
2022-11-16T06:36:07.086Z,96812.57
2022-11-16T06:38:35.767Z,96808.55
2022-11-16T06:41:04.795Z,96806.79
2022-11-16T06:43:33.854Z,96803.77
2022-11-16T06:46:01.916Z,96806.66
2022-11-16T06:48:31.169Z,96806.42
2022-11-16T06:50:59.618Z,96805.73
2022-11-16T06:53:29.638Z,96808.52
2022-11-16T06:56:07.446Z,96804.53
2022-11-16T06:58:44.280Z,96803.96
2022-11-16T07:01:14.225Z,96802.08
2022-11-16T07:03:44.163Z,96797.95
2022-11-16T07:06:14.308Z,96799.52
2022-11-16T07:08:45.692Z,96795.73
2022-11-16T07:11:15.760Z,96799.71
2022-11-16T07:13:44.284Z,96799.25
2022-11-16T07:16:12.604Z,96797.82
2022-11-16T07:18:44.635Z,96794.25
2022-11-16T07:21:15.395Z,96794.48
2022-11-16T07:23:43.767Z,96790.81
2022-11-16T07:26:12.621Z,96793.33
2022-11-16T07:28:48.369Z,96799.09
2022-11-16T07:31:18.649Z,96800.00
2022-11-16T07:33:47.094Z,96799.91
2022-11-16T07:36:37.731Z,96801.27
2022-11-16T07:39:07.066Z,96802.11
2022-11-16T07:41:35.378Z,96803.33
2022-11-16T07:44:12.521Z,96805.16
2022-11-16T07:46:47.622Z,96806.71
2022-11-16T07:49:18.599Z,96805.80
2022-11-16T07:51:51.630Z,96802.81
2022-11-16T07:54:51.866Z,96798.54
2022-11-16T07:57:20.519Z,96797.64
2022-11-16T07:59:48.395Z,96793.91
2022-11-16T08:02:16.381Z,96793.17
2022-11-16T08:04:45.314Z,96790.83
2022-11-16T08:07:14.488Z,96790.02
2022-11-16T08:09:48.525Z,96784.54
2022-11-16T08:12:17.637Z,96784.75
2022-11-16T08:14:45.792Z,96787.20
2022-11-16T08:17:13.995Z,96783.81
2022-11-16T08:19:42.521Z,96783.17
2022-11-16T08:22:13.084Z,96779.50
2022-11-16T08:24:41.586Z,96778.20
2022-11-16T08:27:09.702Z,96782.39
2022-11-16T08:29:37.633Z,96779.09
2022-11-16T08:32:06.816Z,96776.77
2022-11-16T08:34:35.404Z,96782.20
2022-11-16T08:37:08.198Z,96783.09
2022-11-16T08:39:43.255Z,96782.01
2022-11-16T08:42:11.247Z,96781.56
2022-11-16T08:44:39.706Z,96778.92
2022-11-16T08:47:10.920Z,96782.52
2022-11-16T08:49:51.380Z,96781.52
2022-11-16T08:52:20.506Z,96781.60
2022-11-16T08:54:48.537Z,96778.35
2022-11-16T08:57:17.081Z,96773.94
2022-11-16T08:59:45.581Z,96770.19
2022-11-16T09:02:14.865Z,96773.33
2022-11-16T09:04:43.925Z,96773.05
2022-11-16T09:07:11.851Z,96768.43
2022-11-16T09:09:39.776Z,96761.06
2022-11-16T09:12:07.754Z,96765.23
2022-11-16T09:14:35.665Z,96765.46
2022-11-16T09:17:03.852Z,96764.42
2022-11-16T09:19:31.943Z,96763.39
2022-11-16T09:21:59.826Z,96757.77
2022-11-16T09:24:27.726Z,96759.70
2022-11-16T09:26:57.581Z,96761.08
2022-11-16T09:29:27.646Z,96758.96
2022-11-16T09:31:55.728Z,96756.20
2022-11-16T09:34:23.741Z,96754.69
2022-11-16T09:36:52.162Z,96753.45
2022-11-16T09:39:30.684Z,96751.40
2022-11-16T09:42:32.949Z,96749.34
2022-11-16T09:45:21.209Z,96744.08
2022-11-16T09:47:51.884Z,96741.14
2022-11-16T09:50:28.021Z,96740.02
2022-11-16T09:53:01.775Z,96739.89
2022-11-16T09:55:37.248Z,96731.45
2022-11-16T09:58:12.936Z,96731.52
2022-11-16T10:00:47.303Z,96724.65
2022-11-16T10:03:16.099Z,96720.16
2022-11-16T10:05:55.952Z,96722.41
2022-11-16T10:08:43.176Z,96718.77
2022-11-16T10:11:26.590Z,96717.08
2022-11-16T10:14:11.434Z,96712.85
2022-11-16T10:16:42.393Z,96714.15
2022-11-16T10:19:47.906Z,96705.34
2022-11-16T10:22:27.790Z,96706.05
2022-11-16T10:25:00.822Z,96707.39
2022-11-16T10:27:28.723Z,96705.36
2022-11-16T10:30:08.960Z,96705.45
2022-11-16T10:33:11.548Z,96700.42
2022-11-16T10:35:53.248Z,96697.73
2022-11-16T10:38:32.792Z,96698.38
2022-11-16T10:41:21.462Z,96699.98
2022-11-16T10:43:49.670Z,96702.92
2022-11-16T10:46:24.779Z,96703.48
2022-11-16T10:49:08.701Z,96703.08
2022-11-16T10:51:36.687Z,96696.35
2022-11-16T10:54:18.131Z,96693.67
2022-11-16T10:56:49.757Z,96690.54
2022-11-16T10:59:19.697Z,96689.72
2022-11-16T11:01:57.691Z,96686.39
2022-11-16T11:04:28.343Z,96686.81
2022-11-16T11:06:59.202Z,96687.96
2022-11-16T11:09:38.340Z,96683.84
2022-11-16T11:12:38.432Z,96681.25
2022-11-16T11:15:12.519Z,96680.08
2022-11-16T11:17:47.218Z,96680.85
2022-11-16T11:20:15.083Z,96680.08
2022-11-16T11:22:56.933Z,96682.55
2022-11-16T11:25:29.386Z,96680.54
2022-11-16T11:28:18.918Z,96682.05
2022-11-16T11:31:03.021Z,96677.65
2022-11-16T11:33:42.383Z,96674.10
2022-11-16T11:36:20.335Z,96671.27
2022-11-16T11:39:08.320Z,96668.48
2022-11-16T11:41:43.293Z,96668.61
2022-11-16T11:44:14.136Z,96667.34
2022-11-16T11:47:55.777Z,96667.29
2022-11-16T11:50:14.286Z,96662.23
2022-11-16T11:53:00.619Z,96665.54
2022-11-16T11:55:29.559Z,96666.58
2022-11-16T11:57:59.439Z,96663.96
2022-11-16T12:00:29.934Z,96661.07
2022-11-16T12:03:29.096Z,96657.40
2022-11-16T12:06:17.894Z,96658.20
2022-11-16T12:09:05.155Z,96656.31
2022-11-16T12:11:33.117Z,96655.88
2022-11-16T12:14:08.088Z,96653.02
2022-11-16T12:16:50.956Z,96652.39
2022-11-16T12:19:34.043Z,96648.54
2022-11-16T12:22:32.514Z,96649.69
2022-11-16T12:25:25.221Z,96642.77
2022-11-16T12:28:17.587Z,96640.19
2022-11-16T12:31:10.235Z,96641.44
2022-11-16T12:34:01.212Z,96636.61
2022-11-16T12:36:47.112Z,96631.42
2022-11-16T12:39:32.518Z,96635.70
2022-11-16T12:42:22.340Z,96632.60
2022-11-16T12:45:00.094Z,96635.14
2022-11-16T12:48:01.771Z,96634.29
2022-11-16T12:50:57.190Z,96633.38
2022-11-16T12:53:40.836Z,96631.91
2022-11-16T12:56:21.440Z,96627.55
2022-11-16T12:59:18.692Z,96627.08
2022-11-16T13:02:12.633Z,96622.13
2022-11-16T13:04:50.713Z,96619.54
2022-11-16T13:07:29.040Z,96618.20
2022-11-16T13:10:03.186Z,96617.25
2022-11-16T13:12:33.117Z,96613.11
2022-11-16T13:15:03.317Z,96616.70
2022-11-16T13:17:35.704Z,96618.05
2022-11-16T13:20:25.363Z,96619.11
2022-11-16T13:23:15.898Z,96619.76
2022-11-16T13:25:56.612Z,96621.95
2022-11-16T13:28:45.605Z,96621.06
2022-11-16T13:31:28.688Z,96622.27
2022-11-16T13:34:29.077Z,96620.38
2022-11-16T13:36:57.510Z,96618.80
2022-11-16T13:39:59.122Z,96620.86
2022-11-16T13:42:27.220Z,96614.50
2022-11-16T13:45:21.667Z,96615.02
2022-11-16T13:47:52.952Z,96616.77
2022-11-16T13:50:25.292Z,96613.93
2022-11-16T13:56:08.628Z,96611.41
2022-11-16T13:58:43.880Z,96616.04
2022-11-16T14:01:16.809Z,96618.78
2022-11-16T14:03:45.871Z,96619.27
2022-11-16T14:06:13.744Z,96621.70
2022-11-16T14:08:55.335Z,96624.08
2022-11-16T14:11:41.284Z,96621.08
2022-11-16T14:14:33.389Z,96619.76
2022-11-16T14:17:01.277Z,96621.02
2022-11-16T14:19:55.067Z,96618.41
2022-11-16T14:22:32.124Z,96614.61
2022-11-16T14:25:23.828Z,96615.73
2022-11-16T14:28:35.925Z,96613.85
2022-11-16T14:31:16.058Z,96609.85
2022-11-16T14:33:53.584Z,96613.08
2022-11-16T14:36:54.117Z,96610.30
2022-11-16T14:39:28.050Z,96608.46
2022-11-16T14:42:02.974Z,96605.86
2022-11-16T14:44:35.866Z,96610.36
2022-11-16T14:47:04.242Z,96611.11
2022-11-16T14:49:35.333Z,96609.73
2022-11-16T14:52:06.199Z,96609.47
2022-11-16T14:54:57.085Z,96606.78
2022-11-16T14:57:25.075Z,96608.39
2022-11-16T15:00:19.160Z,96609.12
2022-11-16T15:02:51.819Z,96604.88
2022-11-16T15:05:23.585Z,96602.27
2022-11-16T15:07:53.320Z,96597.92
2022-11-16T15:10:24.850Z,96596.84
2022-11-16T15:12:54.926Z,96592.45
2022-11-16T15:15:31.324Z,96594.69
2022-11-16T15:17:59.241Z,96591.17
2022-11-16T15:20:29.395Z,96588.27
2022-11-16T15:22:59.167Z,96584.77
2022-11-16T15:25:33.509Z,96585.08
2022-11-16T15:28:13.764Z,96581.58
2022-11-16T15:30:41.953Z,96575.02
2022-11-16T15:33:23.643Z,96570.85
2022-11-16T15:35:51.596Z,96569.66
2022-11-16T15:38:33.098Z,96567.64
2022-11-16T15:41:03.897Z,96568.77
2022-11-16T15:43:45.140Z,96568.11
2022-11-16T15:46:18.414Z,96568.09
2022-11-16T15:48:46.898Z,96571.56
2022-11-16T15:51:28.159Z,96573.58
2022-11-16T15:54:14.277Z,96578.16
2022-11-16T15:56:42.735Z,96577.80
2022-11-16T15:59:17.081Z,96579.00
2022-11-16T16:01:45.595Z,96579.08
2022-11-16T16:04:18.516Z,96577.61
2022-11-16T16:06:57.435Z,96575.83
2022-11-16T16:09:34.349Z,96575.67
2022-11-16T16:12:22.053Z,96573.13
2022-11-16T16:14:52.340Z,96572.95
2022-11-16T16:17:30.675Z,96578.12
2022-11-16T16:20:01.868Z,96576.90
2022-11-16T16:22:33.334Z,96577.02
2022-11-16T16:25:02.325Z,96579.67
2022-11-16T16:27:31.567Z,96581.15
2022-11-16T16:30:05.059Z,96582.73
2022-11-16T16:32:35.652Z,96584.46
2022-11-16T16:35:08.741Z,96584.00
2022-11-16T16:37:37.257Z,96587.64
2022-11-16T16:40:06.057Z,96585.88
2022-11-16T16:42:33.989Z,96588.65
2022-11-16T16:45:02.547Z,96587.66
2022-11-16T16:47:31.286Z,96590.84
2022-11-16T16:49:59.135Z,96588.94
2022-11-16T16:52:27.828Z,96588.64
2022-11-16T16:54:55.770Z,96590.80
2022-11-16T16:57:23.692Z,96591.95
2022-11-16T16:59:51.603Z,96593.24
2022-11-16T17:02:19.592Z,96594.39
2022-11-16T17:04:48.545Z,96591.35
2022-11-16T17:07:16.932Z,96593.08
2022-11-16T17:09:45.003Z,96594.50
2022-11-16T17:12:13.131Z,96589.05
2022-11-16T17:14:40.982Z,96588.65
2022-11-16T17:17:08.916Z,96593.59
2022-11-16T17:19:36.899Z,96590.69
2022-11-16T17:22:04.943Z,96594.08
2022-11-16T17:24:34.572Z,96591.06
2022-11-16T17:27:02.443Z,96593.85
2022-11-16T17:29:30.438Z,96593.30
2022-11-16T17:31:58.453Z,96594.90
2022-11-16T17:34:26.507Z,96591.77
2022-11-16T17:36:55.934Z,96597.89
2022-11-16T17:39:24.955Z,96596.70
2022-11-16T17:41:52.924Z,96597.59
2022-11-16T17:44:22.138Z,96598.98
2022-11-16T17:46:50.261Z,96593.52
2022-11-16T17:49:18.165Z,96597.67
2022-11-16T17:51:46.063Z,96596.91
2022-11-16T17:54:13.993Z,96600.38
2022-11-16T17:56:41.993Z,96603.17
2022-11-16T17:59:10.017Z,96600.95
2022-11-16T18:01:37.986Z,96605.63
2022-11-16T18:04:05.936Z,96607.86
2022-11-16T18:06:35.526Z,96605.44
2022-11-16T18:09:03.573Z,96605.67
2022-11-16T18:11:31.611Z,96607.50
2022-11-16T18:14:00.822Z,96602.76
2022-11-16T18:16:31.790Z,96603.84
2022-11-16T18:19:02.106Z,96600.36
2022-11-16T18:21:30.954Z,96609.41
2022-11-16T18:24:00.033Z,96606.31
2022-11-16T18:26:27.970Z,96604.19
2022-11-16T18:28:55.869Z,96611.59
2022-11-16T18:31:25.208Z,96608.81
2022-11-16T18:33:53.097Z,96610.93
2022-11-16T18:36:21.844Z,96606.25
2022-11-16T18:38:50.409Z,96600.64
2022-11-16T18:41:19.697Z,96602.54
2022-11-16T18:43:55.767Z,96605.33
2022-11-16T18:46:28.801Z,96604.71
2022-11-16T18:48:57.186Z,96609.02
2022-11-16T18:51:27.266Z,96600.92
2022-11-16T18:53:55.735Z,96596.17
2022-11-16T18:56:24.185Z,96592.65
2022-11-16T18:58:53.118Z,96591.02
2022-11-16T19:01:24.229Z,96595.38
2022-11-16T19:03:53.912Z,96596.70
2022-11-16T19:06:23.435Z,96598.89
2022-11-16T19:08:59.179Z,96597.67
2022-11-16T19:11:28.848Z,96596.54
2022-11-16T19:14:00.881Z,96601.64
2022-11-16T19:16:28.892Z,96603.08
2022-11-16T19:18:56.976Z,96602.85
2022-11-16T19:21:25.075Z,96603.53
2022-11-16T19:23:55.485Z,96604.45
2022-11-16T19:26:27.508Z,96607.77
2022-11-16T19:28:55.742Z,96613.02
2022-11-16T19:31:29.200Z,96615.95
2022-11-16T19:33:59.478Z,96612.70
2022-11-16T19:36:29.284Z,96608.23
2022-11-16T19:38:57.895Z,96608.05
2022-11-16T19:41:27.033Z,96603.48
2022-11-16T19:43:59.707Z,96601.42
2022-11-16T19:46:30.167Z,96597.99
2022-11-16T19:48:58.963Z,96596.66
2022-11-16T19:51:29.249Z,96603.77
2022-11-16T19:53:59.513Z,96608.64
2022-11-16T19:56:28.101Z,96606.04
2022-11-16T19:58:56.195Z,96612.59
2022-11-16T20:01:28.018Z,96614.36
2022-11-16T20:03:58.053Z,96621.35
2022-11-16T20:06:31.360Z,96621.28
2022-11-16T20:09:03.961Z,96619.90
2022-11-16T20:11:36.471Z,96618.89
2022-11-16T20:14:06.668Z,96614.77
2022-11-16T20:16:39.536Z,96620.04
2022-11-16T20:19:09.427Z,96616.91
2022-11-16T20:21:39.911Z,96618.45
2022-11-16T20:24:11.391Z,96616.63
2022-11-16T20:26:45.281Z,96619.38
2022-11-16T20:29:15.245Z,96616.95
2022-11-16T20:31:46.215Z,96611.58
2022-11-16T20:34:16.700Z,96612.11
2022-11-16T20:36:47.011Z,96614.79
2022-11-16T20:39:17.755Z,96617.18
2022-11-16T20:41:46.832Z,96621.55
2022-11-16T20:44:22.342Z,96621.98
2022-11-16T20:46:52.849Z,96627.22
2022-11-16T20:49:20.761Z,96627.48
2022-11-16T20:51:50.328Z,96624.09
2022-11-16T20:54:18.266Z,96626.90
2022-11-16T20:56:48.135Z,96623.77
2022-11-16T20:59:16.399Z,96621.61
2022-11-16T21:01:48.951Z,96618.21
2022-11-16T21:04:17.110Z,96615.56
2022-11-16T21:06:45.265Z,96611.35
2022-11-16T21:09:22.726Z,96613.79
2022-11-16T21:12:09.333Z,96610.05
2022-11-16T21:14:37.296Z,96603.41
2022-11-16T21:17:05.189Z,96600.02
2022-11-16T21:19:33.091Z,96601.66
2022-11-16T21:22:01.011Z,96606.47
2022-11-16T21:24:29.438Z,96609.25
2022-11-16T21:26:57.303Z,96609.42
2022-11-16T21:29:26.077Z,96613.30
2022-11-16T21:31:54.061Z,96610.79
2022-11-16T21:34:23.614Z,96607.88
2022-11-16T21:36:52.404Z,96607.52
2022-11-16T21:39:20.298Z,96602.16
2022-11-16T21:41:48.177Z,96604.25
2022-11-16T21:44:16.121Z,96599.35
2022-11-16T21:46:44.078Z,96597.12
2022-11-16T21:49:11.986Z,96597.20
2022-11-16T21:51:39.859Z,96598.12
2022-11-16T21:54:07.768Z,96597.69
2022-11-16T21:56:35.659Z,96591.84
2022-11-16T21:59:03.615Z,96594.16
2022-11-16T22:01:53.926Z,96597.30
2022-11-16T22:04:40.366Z,96601.34
2022-11-16T22:07:33.578Z,96602.80
2022-11-16T22:10:11.820Z,96611.75
2022-11-16T22:12:42.878Z,96616.96
2022-11-16T22:15:11.299Z,96620.05
2022-11-16T22:17:46.446Z,96621.14
2022-11-16T22:20:14.574Z,96621.86
2022-11-16T22:22:42.773Z,96625.27
2022-11-16T22:25:11.333Z,96624.39
2022-11-16T22:27:58.692Z,96624.55
2022-11-16T22:30:28.070Z,96627.33
2022-11-16T22:32:55.945Z,96632.98
2022-11-16T22:35:23.817Z,96634.63
2022-11-16T22:37:51.735Z,96633.77
2022-11-16T22:40:19.633Z,96629.86
2022-11-16T22:42:47.566Z,96622.30
2022-11-16T22:45:15.630Z,96624.31
2022-11-16T22:47:43.631Z,96623.27
2022-11-16T22:50:11.809Z,96618.02
2022-11-16T22:52:39.695Z,96618.38
2022-11-16T22:55:08.047Z,96618.29
2022-11-16T22:57:35.979Z,96615.02
2022-11-16T23:00:10.096Z,96618.08
2022-11-16T23:02:37.990Z,96615.71
2022-11-16T23:05:06.306Z,96611.34
2022-11-16T23:07:34.397Z,96610.96
2022-11-16T23:10:02.464Z,96606.83
2022-11-16T23:12:49.003Z,96604.66
2022-11-16T23:15:35.276Z,96601.55
2022-11-16T23:18:03.256Z,96602.22
2022-11-16T23:20:49.560Z,96608.08
2022-11-16T23:23:37.206Z,96610.78
2022-11-16T23:26:30.983Z,96609.25
2022-11-16T23:28:59.303Z,96605.69
2022-11-16T23:31:27.191Z,96600.05
2022-11-16T23:33:55.023Z,96595.57
2022-11-16T23:36:22.958Z,96594.12
2022-11-16T23:38:50.872Z,96594.60
2022-11-16T23:41:37.418Z,96593.64
2022-11-16T23:44:05.316Z,96590.09
2022-11-16T23:46:33.773Z,96591.95
2022-11-16T23:49:02.223Z,96599.65
2022-11-16T23:51:30.167Z,96595.10
2022-11-16T23:53:58.131Z,96594.94
2022-11-16T23:56:27.643Z,96599.01
2022-11-16T23:58:57.508Z,96605.36
